sensor_id;sensor_type;location;lat;lon;timestamp;pressure;altitude;pressure_sealevel;temperature;humidity
20037;BME280;10179;42.640;23.312;2022-11-15T00:01:31;94277.53;;;9.91;55.15
20037;BME280;10179;42.640;23.312;2022-11-15T00:03:57;94274.91;;;9.91;55.07
20037;BME280;10179;42.640;23.312;2022-11-15T00:06:22;94216.66;;;9.49;54.88
20037;BME280;10179;42.640;23.312;2022-11-15T00:08:47;94264.22;;;9.86;54.80
20037;BME280;10179;42.640;23.312;2022-11-15T00:11:13;94260.59;;;9.80;54.74
20037;BME280;10179;42.640;23.312;2022-11-15T00:13:38;94246.50;;;9.61;54.19
20037;BME280;10179;42.640;23.312;2022-11-15T00:16:04;94227.56;;;9.46;54.31
20037;BME280;10179;42.640;23.312;2022-11-15T00:18:31;94266.66;;;9.61;54.36
20037;BME280;10179;42.640;23.312;2022-11-15T00:21:04;94218.91;;;9.19;54.56
20037;BME280;10179;42.640;23.312;2022-11-15T00:23:30;94269.91;;;9.43;54.66
20037;BME280;10179;42.640;23.312;2022-11-15T00:25:56;94257.00;;;9.35;54.55
20037;BME280;10179;42.640;23.312;2022-11-15T00:28:22;94255.19;;;9.28;54.91
20037;BME280;10179;42.640;23.312;2022-11-15T00:30:48;94258.03;;;9.20;55.00
20037;BME280;10179;42.640;23.312;2022-11-15T00:33:13;94252.56;;;9.15;54.97
20037;BME280;10179;42.640;23.312;2022-11-15T00:35:38;94245.31;;;9.11;54.96
20037;BME280;10179;42.640;23.312;2022-11-15T00:38:04;94249.13;;;9.08;55.14
20037;BME280;10179;42.640;23.312;2022-11-15T00:40:30;94242.47;;;9.05;55.24
20037;BME280;10179;42.640;23.312;2022-11-15T00:42:55;94153.75;;;8.49;55.36
20037;BME280;10179;42.640;23.312;2022-11-15T00:45:21;94146.44;;;8.18;55.28
20037;BME280;10179;42.640;23.312;2022-11-15T00:47:47;94243.28;;;9.06;55.41
20037;BME280;10179;42.640;23.312;2022-11-15T00:50:12;94272.72;;;9.08;55.45
20037;BME280;10179;42.640;23.312;2022-11-15T00:52:38;94243.50;;;9.11;55.91
20037;BME280;10179;42.640;23.312;2022-11-15T00:55:04;94202.13;;;8.73;55.89
20037;BME280;10179;42.640;23.312;2022-11-15T00:57:30;94054.84;;;7.98;55.75
20037;BME280;10179;42.640;23.312;2022-11-15T00:59:55;94124.38;;;8.41;55.64
20037;BME280;10179;42.640;23.312;2022-11-15T01:02:20;94234.63;;;9.12;55.83
20037;BME280;10179;42.640;23.312;2022-11-15T01:04:46;94240.88;;;9.11;55.49
20037;BME280;10179;42.640;23.312;2022-11-15T01:07:11;94238.25;;;9.11;55.70
20037;BME280;10179;42.640;23.312;2022-11-15T01:09:37;94251.75;;;9.08;55.69
20037;BME280;10179;42.640;23.312;2022-11-15T01:12:03;94233.41;;;9.08;55.93
20037;BME280;10179;42.640;23.312;2022-11-15T01:14:28;94200.34;;;8.87;55.87
20037;BME280;10179;42.640;23.312;2022-11-15T01:16:53;94106.38;;;8.24;55.81
20037;BME280;10179;42.640;23.312;2022-11-15T01:19:19;94241.47;;;9.00;55.89
20037;BME280;10179;42.640;23.312;2022-11-15T01:21:44;94219.09;;;8.97;55.91
20037;BME280;10179;42.640;23.312;2022-11-15T01:24:13;94211.03;;;8.99;55.90
20037;BME280;10179;42.640;23.312;2022-11-15T01:26:38;94229.97;;;9.07;55.38
20037;BME280;10179;42.640;23.312;2022-11-15T01:29:04;94228.97;;;9.02;55.65
20037;BME280;10179;42.640;23.312;2022-11-15T01:31:29;94232.00;;;8.99;55.61
20037;BME280;10179;42.640;23.312;2022-11-15T01:33:54;94227.56;;;8.99;56.01
20037;BME280;10179;42.640;23.312;2022-11-15T01:36:21;94225.53;;;9.01;56.01
20037;BME280;10179;42.640;23.312;2022-11-15T01:38:53;94234.59;;;9.05;56.09
20037;BME280;10179;42.640;23.312;2022-11-15T01:41:24;94240.69;;;9.06;56.12
20037;BME280;10179;42.640;23.312;2022-11-15T01:43:55;94224.56;;;9.09;56.23
20037;BME280;10179;42.640;23.312;2022-11-15T01:48:46;94134.63;;;8.49;56.13
20037;BME280;10179;42.640;23.312;2022-11-15T01:51:13;94223.94;;;9.07;56.17
20037;BME280;10179;42.640;23.312;2022-11-15T01:53:43;94243.69;;;9.10;56.36
20037;BME280;10179;42.640;23.312;2022-11-15T01:56:14;94183.22;;;8.84;56.38
20037;BME280;10179;42.640;23.312;2022-11-15T01:58:40;94163.47;;;8.75;56.28
20037;BME280;10179;42.640;23.312;2022-11-15T02:01:07;94103.22;;;8.35;56.42
20037;BME280;10179;42.640;23.312;2022-11-15T02:03:46;94165.50;;;8.87;56.25
20037;BME280;10179;42.640;23.312;2022-11-15T02:06:14;94228.38;;;9.13;56.16
20037;BME280;10179;42.640;23.312;2022-11-15T02:08:40;94219.91;;;9.11;55.92
20037;BME280;10179;42.640;23.312;2022-11-15T02:11:09;94102.59;;;8.33;55.94
20037;BME280;10179;42.640;23.312;2022-11-15T02:13:35;94151.38;;;8.61;55.68
20037;BME280;10179;42.640;23.312;2022-11-15T02:18:35;94118.28;;;8.33;55.95
20037;BME280;10179;42.640;23.312;2022-11-15T02:29:07;94175.94;;;8.53;55.55
20037;BME280;10179;42.640;23.312;2022-11-15T02:36:43;94172.31;;;8.61;56.30
20037;BME280;10179;42.640;23.312;2022-11-15T02:39:38;94202.38;;;8.92;56.34
20037;BME280;10179;42.640;23.312;2022-11-15T02:42:11;94204.19;;;8.84;56.36
20037;BME280;10179;42.640;23.312;2022-11-15T02:44:58;94211.22;;;8.84;56.39
20037;BME280;10179;42.640;23.312;2022-11-15T02:47:28;94175.53;;;8.63;56.69
20037;BME280;10179;42.640;23.312;2022-11-15T02:49:59;94209.00;;;8.88;56.51
20037;BME280;10179;42.640;23.312;2022-11-15T02:52:26;94156.78;;;8.53;56.63
20037;BME280;10179;42.640;23.312;2022-11-15T02:55:00;94206.59;;;8.99;56.55
20037;BME280;10179;42.640;23.312;2022-11-15T03:02:43;94217.91;;;9.06;56.79
20037;BME280;10179;42.640;23.312;2022-11-15T03:11:00;94177.19;;;8.97;57.02
20037;BME280;10179;42.640;23.312;2022-11-15T03:13:37;94196.94;;;9.13;57.06
20037;BME280;10179;42.640;23.312;2022-11-15T03:16:19;94210.22;;;9.25;57.02
20037;BME280;10179;42.640;23.312;2022-11-15T03:18:52;94186.66;;;9.12;56.53
20037;BME280;10179;42.640;23.312;2022-11-15T03:21:19;94213.88;;;9.17;56.82
20037;BME280;10179;42.640;23.312;2022-11-15T03:23:48;94193.91;;;9.16;56.69
20037;BME280;10179;42.640;23.312;2022-11-15T03:26:16;94194.31;;;9.13;56.87
20037;BME280;10179;42.640;23.312;2022-11-15T03:28:53;94198.31;;;9.16;56.63
20037;BME280;10179;42.640;23.312;2022-11-15T03:31:23;94164.06;;;8.84;57.16
20037;BME280;10179;42.640;23.312;2022-11-15T03:34:17;94194.09;;;9.08;56.78
20037;BME280;10179;42.640;23.312;2022-11-15T03:36:45;94189.66;;;9.02;57.03
20037;BME280;10179;42.640;23.312;2022-11-15T03:39:12;94072.78;;;8.28;57.15
20037;BME280;10179;42.640;23.312;2022-11-15T03:44:15;94144.13;;;8.70;57.08
20037;BME280;10179;42.640;23.312;2022-11-15T03:47:09;94179.63;;;8.99;56.91
20037;BME280;10179;42.640;23.312;2022-11-15T03:49:39;94177.38;;;8.82;57.29
20037;BME280;10179;42.640;23.312;2022-11-15T03:52:05;94157.00;;;8.58;57.32
20037;BME280;10179;42.640;23.312;2022-11-15T03:54:31;94054.19;;;7.89;57.44
20037;BME280;10179;42.640;23.312;2022-11-15T03:56:57;94173.53;;;8.65;57.50
20037;BME280;10179;42.640;23.312;2022-11-15T03:59:22;94081.66;;;8.33;57.51
20037;BME280;10179;42.640;23.312;2022-11-15T04:01:48;94056.22;;;7.87;57.67
20037;BME280;10179;42.640;23.312;2022-11-15T04:04:13;94172.09;;;8.56;57.70
20037;BME280;10179;42.640;23.312;2022-11-15T04:06:38;94119.84;;;8.21;57.76
20037;BME280;10179;42.640;23.312;2022-11-15T04:09:04;94168.28;;;8.52;57.93
20037;BME280;10179;42.640;23.312;2022-11-15T04:11:30;94165.44;;;8.40;58.31
20037;BME280;10179;42.640;23.312;2022-11-15T04:13:55;94092.88;;;8.01;58.22
20037;BME280;10179;42.640;23.312;2022-11-15T04:16:20;94073.50;;;7.88;57.93
20037;BME280;10179;42.640;23.312;2022-11-15T04:18:46;94142.63;;;8.27;58.10
20037;BME280;10179;42.640;23.312;2022-11-15T04:21:31;94191.63;;;8.47;58.00
20037;BME280;10179;42.640;23.312;2022-11-15T04:24:15;94155.78;;;8.41;58.16
20037;BME280;10179;42.640;23.312;2022-11-15T04:26:41;94156.97;;;8.38;58.18
20037;BME280;10179;42.640;23.312;2022-11-15T04:29:06;94156.16;;;8.38;58.21
20037;BME280;10179;42.640;23.312;2022-11-15T04:31:50;94138.41;;;8.26;58.19
20037;BME280;10179;42.640;23.312;2022-11-15T04:34:15;93993.91;;;7.30;58.47
20037;BME280;10179;42.640;23.312;2022-11-15T04:36:41;94160.56;;;8.37;58.62
20037;BME280;10179;42.640;23.312;2022-11-15T04:39:25;93625.53;;;4.94;58.48
20037;BME280;10179;42.640;23.312;2022-11-15T04:41:50;94161.81;;;8.41;58.69
20037;BME280;10179;42.640;23.312;2022-11-15T04:44:15;94086.41;;;7.97;58.84
20037;BME280;10179;42.640;23.312;2022-11-15T04:46:41;94159.00;;;8.43;58.76
20037;BME280;10179;42.640;23.312;2022-11-15T04:49:06;94120.47;;;8.23;59.04
20037;BME280;10179;42.640;23.312;2022-11-15T04:51:32;94121.50;;;8.22;59.06
20037;BME280;10179;42.640;23.312;2022-11-15T04:53:57;94165.44;;;8.47;58.99
20037;BME280;10179;42.640;23.312;2022-11-15T04:56:23;94161.03;;;8.47;59.24
20037;BME280;10179;42.640;23.312;2022-11-15T04:58:49;94067.88;;;7.85;59.17
20037;BME280;10179;42.640;23.312;2022-11-15T05:01:15;93981.44;;;7.25;59.21
20037;BME280;10179;42.640;23.312;2022-11-15T05:03:41;94159.81;;;8.50;59.10
20037;BME280;10179;42.640;23.312;2022-11-15T05:06:26;94047.34;;;7.75;59.38
20037;BME280;10179;42.640;23.312;2022-11-15T05:08:52;94129.16;;;8.30;59.45
20037;BME280;10179;42.640;23.312;2022-11-15T05:11:17;94159.41;;;8.53;59.31
20037;BME280;10179;42.640;23.312;2022-11-15T05:13:43;94096.31;;;8.08;59.38
20037;BME280;10179;42.640;23.312;2022-11-15T05:16:08;94172.91;;;8.50;59.23
20037;BME280;10179;42.640;23.312;2022-11-15T05:18:34;94130.72;;;8.25;59.21
20037;BME280;10179;42.640;23.312;2022-11-15T05:21:09;94176.72;;;8.41;59.27
20037;BME280;10179;42.640;23.312;2022-11-15T05:23:35;94130.91;;;8.10;59.48
20037;BME280;10179;42.640;23.312;2022-11-15T05:26:02;94143.22;;;8.16;59.79
20037;BME280;10179;42.640;23.312;2022-11-15T05:28:29;94130.31;;;8.08;59.81
20037;BME280;10179;42.640;23.312;2022-11-15T05:31:06;94165.38;;;8.33;59.91
20037;BME280;10179;42.640;23.312;2022-11-15T05:33:33;94155.13;;;8.25;59.90
20037;BME280;10179;42.640;23.312;2022-11-15T05:36:04;94146.63;;;8.17;59.71
20037;BME280;10179;42.640;23.312;2022-11-15T05:38:30;93985.97;;;6.97;60.03
20037;BME280;10179;42.640;23.312;2022-11-15T05:40:55;94155.13;;;8.25;59.77
20037;BME280;10179;42.640;23.312;2022-11-15T05:43:21;94146.44;;;8.18;59.86
20037;BME280;10179;42.640;23.312;2022-11-15T05:45:47;94158.94;;;8.29;60.45
20037;BME280;10179;42.640;23.312;2022-11-15T05:48:13;94118.22;;;8.07;60.09
20037;BME280;10179;42.640;23.312;2022-11-15T05:50:42;94113.78;;;8.01;60.21
20037;BME280;10179;42.640;23.312;2022-11-15T05:53:10;93799.03;;;6.00;60.10
20037;BME280;10179;42.640;23.312;2022-11-15T05:55:38;94166.16;;;8.27;59.96
20037;BME280;10179;42.640;23.312;2022-11-15T05:58:05;94100.06;;;7.85;60.24
20037;BME280;10179;42.640;23.312;2022-11-15T06:00:30;94101.47;;;7.88;60.25
20037;BME280;10179;42.640;23.312;2022-11-15T06:02:56;94134.34;;;8.04;60.53
20037;BME280;10179;42.640;23.312;2022-11-15T06:05:21;94142.81;;;8.19;60.74
20037;BME280;10179;42.640;23.312;2022-11-15T06:07:46;94069.66;;;7.71;60.76
20037;BME280;10179;42.640;23.312;2022-11-15T06:10:12;94170.22;;;8.36;60.65
20037;BME280;10179;42.640;23.312;2022-11-15T06:12:37;94167.25;;;8.40;60.79
20037;BME280;10179;42.640;23.312;2022-11-15T06:15:03;94168.47;;;8.44;60.91
20037;BME280;10179;42.640;23.312;2022-11-15T06:17:28;94177.34;;;8.43;60.31
20037;BME280;10179;42.640;23.312;2022-11-15T06:19:54;94076.91;;;7.76;60.19
20037;BME280;10179;42.640;23.312;2022-11-15T06:22:19;94135.53;;;8.08;60.83
20037;BME280;10179;42.640;23.312;2022-11-15T06:24:44;94151.69;;;8.18;60.90
20037;BME280;10179;42.640;23.312;2022-11-15T06:27:11;94178.69;;;8.32;61.07
20037;BME280;10179;42.640;23.312;2022-11-15T06:29:36;94165.59;;;8.32;61.15
20037;BME280;10179;42.640;23.312;2022-11-15T06:32:02;94096.88;;;7.97;61.23
20037;BME280;10179;42.640;23.312;2022-11-15T06:34:27;94133.94;;;8.20;61.33
20037;BME280;10179;42.640;23.312;2022-11-15T06:36:53;93988.13;;;7.34;60.97
20037;BME280;10179;42.640;23.312;2022-11-15T06:39:18;94141.22;;;8.31;61.08
20037;BME280;10179;42.640;23.312;2022-11-15T06:41:43;94132.75;;;8.16;60.83
20037;BME280;10179;42.640;23.312;2022-11-15T06:44:09;94032.41;;;7.56;61.24
20037;BME280;10179;42.640;23.312;2022-11-15T06:46:34;94164.03;;;8.44;61.21
20037;BME280;10179;42.640;23.312;2022-11-15T06:48:59;94159.59;;;8.45;61.57
20037;BME280;10179;42.640;23.312;2022-11-15T06:51:25;94167.06;;;8.48;61.46
20037;BME280;10179;42.640;23.312;2022-11-15T06:53:50;94102.13;;;8.03;61.16
20037;BME280;10179;42.640;23.312;2022-11-15T06:56:16;94126.91;;;8.27;61.48
20037;BME280;10179;42.640;23.312;2022-11-15T06:58:41;94159.22;;;8.48;61.50
20037;BME280;10179;42.640;23.312;2022-11-15T07:01:09;94174.53;;;8.51;61.55
20037;BME280;10179;42.640;23.312;2022-11-15T07:03:36;94069.91;;;7.83;61.55
20037;BME280;10179;42.640;23.312;2022-11-15T07:06:02;94160.22;;;8.47;61.54
20037;BME280;10179;42.640;23.312;2022-11-15T07:08:28;94167.06;;;8.48;61.76
20037;BME280;10179;42.640;23.312;2022-11-15T07:10:57;94159.81;;;8.50;61.69
20037;BME280;10179;42.640;23.312;2022-11-15T07:13:27;94133.03;;;8.41;61.92
20037;BME280;10179;42.640;23.312;2022-11-15T07:15:53;94147.31;;;8.52;61.84
20037;BME280;10179;42.640;23.312;2022-11-15T07:18:18;94153.78;;;8.56;61.79
20037;BME280;10179;42.640;23.312;2022-11-15T07:20:44;94114.28;;;8.38;62.05
20037;BME280;10179;42.640;23.312;2022-11-15T07:23:10;94152.97;;;8.62;61.59
20037;BME280;10179;42.640;23.312;2022-11-15T07:25:35;94154.59;;;8.63;62.03
20037;BME280;10179;42.640;23.312;2022-11-15T07:28:01;94030.22;;;7.66;61.92
20037;BME280;10179;42.640;23.312;2022-11-15T07:30:27;94172.34;;;8.68;61.83
20037;BME280;10179;42.640;23.312;2022-11-15T07:32:57;94158.63;;;8.72;61.81
20037;BME280;10179;42.640;23.312;2022-11-15T07:35:24;94141.31;;;8.58;61.58
20037;BME280;10179;42.640;23.312;2022-11-15T07:37:57;94136.06;;;8.58;61.57
20037;BME280;10179;42.640;23.312;2022-11-15T07:40:24;94171.53;;;8.67;61.97
20037;BME280;10179;42.640;23.312;2022-11-15T07:42:49;94108.44;;;8.35;61.93
20037;BME280;10179;42.640;23.312;2022-11-15T07:45:18;94144.94;;;8.57;61.92
20037;BME280;10179;42.640;23.312;2022-11-15T07:47:50;94157.22;;;8.76;61.97
20037;BME280;10179;42.640;23.312;2022-11-15T07:50:17;94136.88;;;8.65;62.07
20037;BME280;10179;42.640;23.312;2022-11-15T07:52:43;94078.41;;;8.25;61.93
20037;BME280;10179;42.640;23.312;2022-11-15T07:55:09;94082.81;;;8.18;62.13
20037;BME280;10179;42.640;23.312;2022-11-15T07:57:35;94160.06;;;8.81;62.17
20037;BME280;10179;42.640;23.312;2022-11-15T08:00:00;94152.41;;;8.87;62.42
20037;BME280;10179;42.640;23.312;2022-11-15T08:02:26;93862.25;;;7.04;61.93
20037;BME280;10179;42.640;23.312;2022-11-15T08:04:51;94153.41;;;8.99;62.31
20037;BME280;10179;42.640;23.312;2022-11-15T08:07:16;94146.13;;;9.01;62.18
20037;BME280;10179;42.640;23.312;2022-11-15T08:09:42;94013.22;;;8.23;62.18
20037;BME280;10179;42.640;23.312;2022-11-15T08:12:08;94148.13;;;9.12;62.23
20037;BME280;10179;42.640;23.312;2022-11-15T08:14:34;94063.56;;;8.65;62.38
20037;BME280;10179;42.640;23.312;2022-11-15T08:16:59;94132.41;;;9.12;61.97
20037;BME280;10179;42.640;23.312;2022-11-15T08:19:25;94142.09;;;9.25;61.91
20037;BME280;10179;42.640;23.312;2022-11-15T08:21:50;94113.91;;;9.07;62.05
20037;BME280;10179;42.640;23.312;2022-11-15T08:24:16;94158.63;;;9.32;62.17
20037;BME280;10179;42.640;23.312;2022-11-15T08:26:41;94136.22;;;9.29;61.82
20037;BME280;10179;42.640;23.312;2022-11-15T08:29:07;94144.09;;;9.29;61.64
20037;BME280;10179;42.640;23.312;2022-11-15T08:31:34;94146.13;;;9.27;61.61
20037;BME280;10179;42.640;23.312;2022-11-15T08:34:02;94149.16;;;9.24;61.81
20037;BME280;10179;42.640;23.312;2022-11-15T08:36:27;94113.28;;;9.05;61.95
20037;BME280;10179;42.640;23.312;2022-11-15T08:38:53;94091.34;;;8.93;61.60
20037;BME280;10179;42.640;23.312;2022-11-15T08:41:27;94129.00;;;9.18;61.37
20037;BME280;10179;42.640;23.312;2022-11-15T08:43:53;94138.47;;;9.19;61.63
20037;BME280;10179;42.640;23.312;2022-11-15T08:46:18;94138.91;;;9.16;61.71
20037;BME280;10179;42.640;23.312;2022-11-15T08:48:44;94131.03;;;9.16;61.87
20037;BME280;10179;42.640;23.312;2022-11-15T08:51:09;94097.97;;;9.02;62.15
20037;BME280;10179;42.640;23.312;2022-11-15T08:53:35;94125.16;;;9.27;62.23
20037;BME280;10179;42.640;23.312;2022-11-15T08:56:01;94083.28;;;9.01;61.95
20037;BME280;10179;42.640;23.312;2022-11-15T08:58:26;93995.09;;;8.35;61.79
20037;BME280;10179;42.640;23.312;2022-11-15T09:00:52;94103.59;;;9.25;61.81
20037;BME280;10179;42.640;23.312;2022-11-15T09:03:17;94125.13;;;9.41;62.16
20037;BME280;10179;42.640;23.312;2022-11-15T09:05:42;94072.78;;;9.14;62.25
20037;BME280;10179;42.640;23.312;2022-11-15T09:08:08;94104.94;;;9.48;61.95
20037;BME280;10179;42.640;23.312;2022-11-15T09:10:33;93964.50;;;8.62;62.04
20037;BME280;10179;42.640;23.312;2022-11-15T09:12:59;94044.56;;;9.16;61.67
20037;BME280;10179;42.640;23.312;2022-11-15T09:15:24;94107.56;;;9.48;61.79
20037;BME280;10179;42.640;23.312;2022-11-15T09:17:49;94082.81;;;9.30;62.09
20037;BME280;10179;42.640;23.312;2022-11-15T09:20:15;94082.16;;;9.48;62.36
20037;BME280;10179;42.640;23.312;2022-11-15T09:22:41;94088.16;;;9.62;62.47
20037;BME280;10179;42.640;23.312;2022-11-15T09:25:07;94069.19;;;9.60;62.40
20037;BME280;10179;42.640;23.312;2022-11-15T09:27:32;93978.66;;;9.13;62.07
20037;BME280;10179;42.640;23.312;2022-11-15T09:29:58;94083.81;;;9.88;62.09
20037;BME280;10179;42.640;23.312;2022-11-15T09:32:23;93961.13;;;9.13;62.02
20037;BME280;10179;42.640;23.312;2022-11-15T09:34:49;94078.72;;;9.93;61.60
20037;BME280;10179;42.640;23.312;2022-11-15T09:37:15;94010.13;;;9.51;61.12
20037;BME280;10179;42.640;23.312;2022-11-15T09:39:41;94021.22;;;9.53;61.02
20037;BME280;10179;42.640;23.312;2022-11-15T09:47:55;94069.66;;;9.89;61.33
20037;BME280;10179;42.640;23.312;2022-11-15T09:53:02;94054.72;;;9.89;61.75
20037;BME280;10179;42.640;23.312;2022-11-15T09:56:01;94008.78;;;9.80;61.59
20037;BME280;10179;42.640;23.312;2022-11-15T09:58:39;93993.09;;;9.73;61.68
20037;BME280;10179;42.640;23.312;2022-11-15T10:01:19;93937.78;;;9.43;61.56
20037;BME280;10179;42.640;23.312;2022-11-15T10:03:46;93931.47;;;9.51;61.48
20037;BME280;10179;42.640;23.312;2022-11-15T10:06:22;94037.72;;;10.37;61.66
20037;BME280;10179;42.640;23.312;2022-11-15T10:09:00;93919.31;;;9.63;61.19
20037;BME280;10179;42.640;23.312;2022-11-15T10:11:31;94036.44;;;10.46;60.96
20037;BME280;10179;42.640;23.312;2022-11-15T10:14:02;94011.88;;;10.34;60.78
20037;BME280;10179;42.640;23.312;2022-11-15T10:21:26;93954.56;;;10.31;61.05
20037;BME280;10179;42.640;23.312;2022-11-15T10:23:54;94015.53;;;11.01;60.44
20037;BME280;10179;42.640;23.312;2022-11-15T10:26:20;94017.28;;;10.89;60.48
20037;BME280;10179;42.640;23.312;2022-11-15T10:28:46;93923.22;;;10.36;60.29
20037;BME280;10179;42.640;23.312;2022-11-15T10:31:28;94011.06;;;11.02;60.56
20037;BME280;10179;42.640;23.312;2022-11-15T10:34:21;93952.22;;;10.84;60.57
20037;BME280;10179;42.640;23.312;2022-11-15T10:36:57;93971.88;;;11.00;60.33
20037;BME280;10179;42.640;23.312;2022-11-15T10:39:23;93992.75;;;11.13;59.77
20037;BME280;10179;42.640;23.312;2022-11-15T10:41:49;93954.94;;;10.96;59.71
20037;BME280;10179;42.640;23.312;2022-11-15T10:44:24;93974.84;;;11.22;59.45
20037;BME280;10179;42.640;23.312;2022-11-15T10:49:25;93969.94;;;11.26;59.32
20037;BME280;10179;42.640;23.312;2022-11-15T10:54:36;93967.16;;;11.39;58.91
20037;BME280;10179;42.640;23.312;2022-11-15T10:57:27;93971.25;;;11.53;59.13
20037;BME280;10179;42.640;23.312;2022-11-15T11:00:13;93966.13;;;11.58;58.87
20037;BME280;10179;42.640;23.312;2022-11-15T11:06:06;93951.25;;;11.64;57.98
20037;BME280;10179;42.640;23.312;2022-11-15T11:08:32;93966.69;;;11.60;57.40
20037;BME280;10179;42.640;23.312;2022-11-15T11:11:01;93915.88;;;11.48;57.47
20037;BME280;10179;42.640;23.312;2022-11-15T11:21:14;93882.41;;;11.55;56.57
20037;BME280;10179;42.640;23.312;2022-11-15T11:23:58;93924.63;;;12.02;56.80
20037;BME280;10179;42.640;23.312;2022-11-15T11:42:33;93884.94;;;12.39;55.17
20037;BME280;10179;42.640;23.312;2022-11-15T11:45:15;93879.06;;;12.49;54.67
20037;BME280;10179;42.640;23.312;2022-11-15T11:47:51;93884.69;;;12.52;54.65
20037;BME280;10179;42.640;23.312;2022-11-15T11:50:25;93873.22;;;12.58;54.46
20037;BME280;10179;42.640;23.312;2022-11-15T11:53:03;93878.72;;;12.69;54.32
20037;BME280;10179;42.640;23.312;2022-11-15T11:55:51;93857.16;;;12.72;53.95
20037;BME280;10179;42.640;23.312;2022-11-15T11:58:40;93865.38;;;12.87;53.78
20037;BME280;10179;42.640;23.312;2022-11-15T12:01:39;93858.72;;;12.96;53.70
20037;BME280;10179;42.640;23.312;2022-11-15T12:09:58;93818.41;;;12.84;52.57
20037;BME280;10179;42.640;23.312;2022-11-15T12:12:50;93754.09;;;12.56;52.56
20037;BME280;10179;42.640;23.312;2022-11-15T12:15:22;93832.47;;;13.30;52.17
20037;BME280;10179;42.640;23.312;2022-11-15T12:17:49;93834.34;;;13.18;52.25
20037;BME280;10179;42.640;23.312;2022-11-15T12:20:17;93725.69;;;12.58;52.13
20037;BME280;10179;42.640;23.312;2022-11-15T12:30:39;93815.69;;;13.36;50.89
20037;BME280;10179;42.640;23.312;2022-11-15T12:33:29;93751.16;;;12.98;50.70
20037;BME280;10179;42.640;23.312;2022-11-15T12:36:05;93819.69;;;13.39;50.71
20037;BME280;10179;42.640;23.312;2022-11-15T12:38:54;93807.88;;;13.41;50.69
20037;BME280;10179;42.640;23.312;2022-11-15T12:41:30;93727.66;;;12.80;50.68
20037;BME280;10179;42.640;23.312;2022-11-15T12:43:56;93793.47;;;13.32;50.70
20037;BME280;10179;42.640;23.312;2022-11-15T12:48:59;93771.13;;;13.23;50.67
20037;BME280;10179;42.640;23.312;2022-11-15T13:17:43;93774.31;;;13.70;50.00
20037;BME280;10179;42.640;23.312;2022-11-15T13:22:48;93792.53;;;13.72;49.85
20037;BME280;10179;42.640;23.312;2022-11-15T13:27:57;93473.34;;;11.81;49.51
20037;BME280;10179;42.640;23.312;2022-11-15T13:30:29;93718.03;;;13.31;49.77
20037;BME280;10179;42.640;23.312;2022-11-15T13:32:55;93761.84;;;13.66;49.89
20037;BME280;10179;42.640;23.312;2022-11-15T13:35:23;93698.97;;;13.29;49.69
20037;BME280;10179;42.640;23.312;2022-11-15T13:37:51;93758.78;;;13.74;49.71
20037;BME280;10179;42.640;23.312;2022-11-15T13:40:27;93759.91;;;13.78;49.61
20037;BME280;10179;42.640;23.312;2022-11-15T13:42:56;93760.84;;;13.72;49.38
20037;BME280;10179;42.640;23.312;2022-11-15T13:45:23;93761.34;;;13.69;49.46
20037;BME280;10179;42.640;23.312;2022-11-15T13:47:55;93735.28;;;13.55;49.43
20037;BME280;10179;42.640;23.312;2022-11-15T13:50:22;93759.56;;;13.91;49.09
20037;BME280;10179;42.640;23.312;2022-11-15T13:52:49;93675.47;;;13.10;49.42
20037;BME280;10179;42.640;23.312;2022-11-15T13:55:22;93694.47;;;13.12;49.72
20037;BME280;10179;42.640;23.312;2022-11-15T13:57:57;93754.94;;;13.65;49.67
20037;BME280;10179;42.640;23.312;2022-11-15T14:00:33;93749.19;;;13.68;49.88
20037;BME280;10179;42.640;23.312;2022-11-15T14:03:19;93750.44;;;13.82;49.85
20037;BME280;10179;42.640;23.312;2022-11-15T14:08:26;93714.19;;;13.55;49.65
20037;BME280;10179;42.640;23.312;2022-11-15T14:11:19;93748.53;;;13.94;49.60
20037;BME280;10179;42.640;23.312;2022-11-15T14:16:38;93718.63;;;13.72;49.54
20037;BME280;10179;42.640;23.312;2022-11-15T14:19:05;93751.06;;;13.89;49.34
20037;BME280;10179;42.640;23.312;2022-11-15T14:21:31;93741.41;;;13.78;49.34
20037;BME280;10179;42.640;23.312;2022-11-15T14:24:16;93750.69;;;13.97;49.36
20037;BME280;10179;42.640;23.312;2022-11-15T14:26:42;93747.91;;;13.87;49.45
20037;BME280;10179;42.640;23.312;2022-11-15T14:29:29;93738.97;;;13.93;49.31
20037;BME280;10179;42.640;23.312;2022-11-15T14:32:20;93747.09;;;13.87;49.36
20037;BME280;10179;42.640;23.312;2022-11-15T14:34:48;93703.47;;;13.45;49.58
20037;BME280;10179;42.640;23.312;2022-11-15T14:37:25;93744.63;;;13.80;49.83
20037;BME280;10179;42.640;23.312;2022-11-15T14:39:51;93746.84;;;13.71;49.58
20037;BME280;10179;42.640;23.312;2022-11-15T14:42:18;93745.50;;;13.69;49.88
20037;BME280;10179;42.640;23.312;2022-11-15T14:44:44;93747.59;;;13.67;49.77
20037;BME280;10179;42.640;23.312;2022-11-15T14:47:09;93711.38;;;13.45;49.78
20037;BME280;10179;42.640;23.312;2022-11-15T14:49:35;93731.53;;;13.51;49.63
20037;BME280;10179;42.640;23.312;2022-11-15T14:52:00;93712.59;;;13.38;49.89
20037;BME280;10179;42.640;23.312;2022-11-15T14:54:26;93730.66;;;13.46;50.01
20037;BME280;10179;42.640;23.312;2022-11-15T14:56:51;93744.22;;;13.54;50.01
20037;BME280;10179;42.640;23.312;2022-11-15T14:59:16;93741.25;;;13.51;50.01
20037;BME280;10179;42.640;23.312;2022-11-15T15:01:42;93693.50;;;13.19;49.94
20037;BME280;10179;42.640;23.312;2022-11-15T15:04:10;93745.69;;;13.45;50.01
20037;BME280;10179;42.640;23.312;2022-11-15T15:06:35;93710.94;;;13.20;49.86
20037;BME280;10179;42.640;23.312;2022-11-15T15:09:01;93738.66;;;13.34;49.87
20037;BME280;10179;42.640;23.312;2022-11-15T15:11:29;93722.53;;;13.19;50.19
20037;BME280;10179;42.640;23.312;2022-11-15T15:13:55;93754.31;;;13.24;50.46
20037;BME280;10179;42.640;23.312;2022-11-15T15:16:23;93691.41;;;12.87;50.38
20037;BME280;10179;42.640;23.312;2022-11-15T15:18:49;93737.22;;;13.14;50.57